Time;durP1;ratioP1;P1;durP2;ratioP2;P2;SDS_P1;SDS_P2;PMS_P1;PMS_P2;Temp;Humidity;BMP_temperature;BMP_pressure;BME280_temperature;BME280_humidity;BME280_pressure;Samples;Min_cycle;Max_cycle;Signal;HPM_P1;HPM_P2
2022/04/22 00:00:27;;;;;;;10.90;5.30;;;;;;;;;;5051178;28;20030;-66
2022/04/22 00:02:54;;;;;;;8.90;4.90;;;;;;;;;;5050148;28;20469;-66
2022/04/22 00:05:20;;;;;;;8.77;5.07;;;;;;;;;;5050753;28;20032;-67
2022/04/22 00:07:46;;;;;;;6.30;4.28;;;;;;;;;;5068300;28;20063;-66
2022/04/22 00:10:12;;;;;;;6.53;4.53;;;;;;;;;;5084913;28;20024;-67
2022/04/22 00:12:39;;;;;;;8.55;5.18;;;;;;;;;;5068607;28;20025;-66
2022/04/22 00:15:05;;;;;;;9.52;4.70;;;;;;;;;;5049858;28;20088;-67
2022/04/22 00:17:31;;;;;;;5.72;4.28;;;;;;;;;;5049648;28;20401;-67
2022/04/22 00:19:57;;;;;;;8.15;5.03;;;;;;;;;;5069145;28;20025;-68
2022/04/22 00:22:24;;;;;;;7.78;5.15;;;;;;;;;;5069266;28;20020;-66
2022/04/22 00:24:50;;;;;;;8.10;4.95;;;;;;;;;;5051609;28;20032;-66
2022/04/22 00:27:16;;;;;;;7.70;4.43;;;;;;;;;;5067937;28;20035;-67
2022/04/22 00:29:42;;;;;;;7.63;4.75;;;;;;;;;;5068105;28;20397;-67
2022/04/22 00:32:08;;;;;;;6.30;3.97;;;;;;;;;;5045457;28;20025;-67
2022/04/22 00:34:34;;;;;;;8.32;4.68;;;;;;;;;;5067462;28;20028;-66
2022/04/22 00:37:00;;;;;;;8.93;5.32;;;;;;;;;;5068758;28;20253;-66
2022/04/22 00:39:26;;;;;;;7.25;4.93;;;;;;;;;;5068941;28;20032;-67
2022/04/22 00:41:57;;;;;;;5.43;4.00;;;;;;;;;;5072761;28;20024;-67
2022/04/22 00:47:30;;;;;;;9.30;4.82;;;;;;;;;;5070588;28;20578;-67
2022/04/22 00:49:57;;;;;;;7.57;4.90;;;;;;;;;;5069094;28;20036;-67
2022/04/22 00:52:23;;;;;;;10.07;5.15;;;;;;;;;;5061142;28;20247;-66
2022/04/22 00:54:49;;;;;;;8.32;4.88;;;;;;;;;;5068778;28;20066;-66
2022/04/22 00:57:18;;;;;;;7.53;5.00;;;;;;;;;;5050500;28;20048;-67
2022/04/22 00:59:44;;;;;;;8.60;5.03;;;;;;;;;;5060817;28;20078;-67
2022/04/22 01:02:11;;;;;;;9.57;5.57;;;;;;;;;;5049264;28;20040;-67
2022/04/22 01:10:08;;;;;;;9.23;5.38;;;;;;;;;;5069090;28;20039;-65
2022/04/22 01:12:34;;;;;;;8.43;5.32;;;;;;;;;;5068723;28;20031;-65
2022/04/22 01:15:00;;;;;;;8.48;5.30;;;;;;;;;;5068437;28;20021;-66
2022/04/22 01:17:26;;;;;;;9.98;5.60;;;;;;;;;;5066762;28;20095;-66
2022/04/22 01:19:53;;;;;;;9.57;5.15;;;;;;;;;;5067942;28;20033;-66
2022/04/22 01:22:19;;;;;;;8.90;6.20;;;;;;;;;;5052083;28;20083;-65
2022/04/22 01:24:46;;;;;;;10.95;5.38;;;;;;;;;;5047372;28;20492;-65
2022/04/22 01:27:13;;;;;;;10.00;5.78;;;;;;;;;;5070285;28;20056;-65
2022/04/22 01:29:39;;;;;;;6.93;5.05;;;;;;;;;;5087163;28;20028;-65
2022/04/22 01:32:08;;;;;;;8.40;5.28;;;;;;;;;;5054529;28;20458;-65
2022/04/22 01:34:34;;;;;;;9.13;5.43;;;;;;;;;;5070742;28;20038;-65
2022/04/22 01:37:03;;;;;;;12.77;5.80;;;;;;;;;;5079352;28;20040;-65
2022/04/22 01:39:30;;;;;;;7.93;4.90;;;;;;;;;;5082596;28;20036;-66
2022/04/22 01:41:56;;;;;;;11.80;5.78;;;;;;;;;;5054506;28;20028;-66
2022/04/22 01:44:22;;;;;;;10.40;5.88;;;;;;;;;;5053538;28;20538;-66
2022/04/22 01:46:48;;;;;;;10.65;5.95;;;;;;;;;;5069877;28;20024;-66
2022/04/22 01:49:14;;;;;;;9.88;5.85;;;;;;;;;;5070959;28;20064;-65
2022/04/22 01:51:40;;;;;;;10.35;6.10;;;;;;;;;;5087550;28;20105;-65
2022/04/22 01:54:06;;;;;;;9.55;6.13;;;;;;;;;;5072025;28;20024;-66
2022/04/22 01:56:32;;;;;;;8.93;6.30;;;;;;;;;;5063349;28;20044;-65
2022/04/22 01:58:58;;;;;;;10.45;6.05;;;;;;;;;;5067084;28;20024;-67
2022/04/22 02:01:24;;;;;;;11.43;5.78;;;;;;;;;;5070199;28;20024;-66
2022/04/22 02:03:50;;;;;;;8.23;5.72;;;;;;;;;;5052344;28;20505;-65
2022/04/22 02:06:16;;;;;;;11.90;6.43;;;;;;;;;;5072336;28;20032;-66
2022/04/22 02:08:43;;;;;;;11.30;6.28;;;;;;;;;;5078624;28;20025;-65
2022/04/22 02:11:09;;;;;;;8.77;5.38;;;;;;;;;;5052295;28;20091;-66
2022/04/22 02:13:36;;;;;;;9.52;5.82;;;;;;;;;;5071477;28;20025;-67
2022/04/22 02:16:03;;;;;;;11.30;5.70;;;;;;;;;;5052543;28;20044;-66
2022/04/22 02:18:30;;;;;;;10.38;6.20;;;;;;;;;;5051943;28;20531;-65
2022/04/22 02:20:56;;;;;;;11.27;6.03;;;;;;;;;;5064427;28;20364;-65
2022/04/22 02:23:22;;;;;;;11.23;5.97;;;;;;;;;;5073311;28;20218;-66
2022/04/22 02:25:48;;;;;;;9.68;5.47;;;;;;;;;;5071463;28;20055;-67
2022/04/22 02:28:33;;;;;;;9.80;5.40;;;;;;;;;;5070390;28;20041;-66
2022/04/22 02:31:06;;;;;;;10.82;6.22;;;;;;;;;;5064583;28;20043;-67
2022/04/22 02:36:33;;;;;;;10.07;6.50;;;;;;;;;;5089420;22;20075;-68
2022/04/22 02:38:59;;;;;;;12.27;6.65;;;;;;;;;;5062875;28;20470;-68
2022/04/22 02:46:55;;;;;;;10.27;5.90;;;;;;;;;;5068123;28;20043;-69
2022/04/22 02:49:21;;;;;;;11.07;6.70;;;;;;;;;;5053306;28;20123;-69
2022/04/22 02:51:47;;;;;;;10.02;6.07;;;;;;;;;;5069544;28;20100;-69
2022/04/22 02:54:13;;;;;;;11.00;6.38;;;;;;;;;;5071003;28;20020;-69
2022/04/22 02:56:39;;;;;;;10.52;6.43;;;;;;;;;;5060169;28;20036;-69
2022/04/22 02:59:06;;;;;;;10.48;5.95;;;;;;;;;;5055944;28;20052;-69
2022/04/22 03:01:33;;;;;;;10.50;6.03;;;;;;;;;;5070380;28;20098;-69
2022/04/22 03:03:59;;;;;;;11.40;5.95;;;;;;;;;;5070493;28;20021;-68
2022/04/22 03:06:26;;;;;;;10.35;6.25;;;;;;;;;;5068612;28;20398;-69
2022/04/22 03:08:52;;;;;;;13.65;7.00;;;;;;;;;;5069729;28;20409;-68
2022/04/22 03:11:21;;;;;;;12.88;6.75;;;;;;;;;;5062449;28;20021;-69
2022/04/22 03:13:50;;;;;;;9.68;5.78;;;;;;;;;;5070215;28;20028;-69
2022/04/22 03:16:19;;;;;;;10.38;7.03;;;;;;;;;;5065790;28;20029;-69
2022/04/22 03:18:45;;;;;;;14.75;7.00;;;;;;;;;;5070183;28;20032;-68
2022/04/22 03:21:12;;;;;;;11.77;7.20;;;;;;;;;;5067219;28;20043;-69
2022/04/22 03:23:37;;;;;;;13.13;7.32;;;;;;;;;;5060524;28;20024;-68
2022/04/22 03:26:04;;;;;;;10.90;6.25;;;;;;;;;;5067849;28;20054;-68
2022/04/22 03:28:30;;;;;;;13.43;7.40;;;;;;;;;;5070157;28;20070;-69
2022/04/22 03:34:09;;;;;;;13.60;7.38;;;;;;;;;;4976229;28;20064;-69
2022/04/22 03:36:35;;;;;;;14.50;7.32;;;;;;;;;;4986800;28;20074;-68
2022/04/22 03:39:12;;;;;;;12.85;7.15;;;;;;;;;;4988224;28;20288;-69
2022/04/22 03:41:39;;;;;;;13.45;7.63;;;;;;;;;;4981719;28;20039;-68
2022/04/22 03:44:05;;;;;;;18.85;8.38;;;;;;;;;;4981433;28;20069;-69
2022/04/22 03:46:31;;;;;;;14.00;7.28;;;;;;;;;;4973433;28;20026;-70
2022/04/22 03:49:00;;;;;;;14.70;7.82;;;;;;;;;;4977220;28;20019;-68
2022/04/22 03:51:26;;;;;;;13.98;7.65;;;;;;;;;;4964084;28;20043;-69
2022/04/22 03:53:52;;;;;;;15.65;7.82;;;;;;;;;;4987554;28;20026;-68
2022/04/22 03:59:03;;;;;;;13.02;7.78;;;;;;;;;;4978046;28;20045;-68
2022/04/22 04:01:29;;;;;;;11.88;8.05;;;;;;;;;;4994665;28;20126;-68
2022/04/22 04:03:55;;;;;;;13.18;7.40;;;;;;;;;;4990361;28;20041;-68
2022/04/22 04:06:23;;;;;;;16.63;7.95;;;;;;;;;;4967508;28;20035;-68
2022/04/22 04:15:57;;;;;;;14.68;8.57;;;;;;;;;;4986559;28;20034;-68
2022/04/22 04:17:06;;;;;;;15.75;9.07;;;;;;;;;;5055882;28;20094;-68
2022/04/22 04:25:01;;;;;;;17.23;8.07;;;;;;;;;;5062677;28;20553;-68
2022/04/22 04:27:29;;;;;;;20.85;8.75;;;;;;;;;;5052153;28;20024;-68
2022/04/22 04:29:55;;;;;;;17.10;9.13;;;;;;;;;;5069370;28;20025;-68
2022/04/22 04:32:21;;;;;;;18.00;9.35;;;;;;;;;;5051269;28;20024;-68
2022/04/22 04:34:47;;;;;;;17.33;9.48;;;;;;;;;;5070057;28;20031;-69
2022/04/22 04:37:13;;;;;;;16.67;8.95;;;;;;;;;;5037539;28;20123;-68
2022/04/22 04:39:40;;;;;;;15.52;9.00;;;;;;;;;;5053271;28;20021;-69
2022/04/22 04:42:08;;;;;;;19.20;9.23;;;;;;;;;;5070382;28;20232;-69
2022/04/22 04:44:34;;;;;;;18.15;10.30;;;;;;;;;;5061177;28;20036;-69
2022/04/22 04:47:00;;;;;;;17.35;9.05;;;;;;;;;;5054444;28;20017;-67
2022/04/22 04:49:27;;;;;;;16.05;9.07;;;;;;;;;;5071235;28;20016;-67
2022/04/22 04:51:53;;;;;;;17.38;8.95;;;;;;;;;;5050437;28;20082;-67
2022/04/22 04:54:21;;;;;;;26.30;9.80;;;;;;;;;;5065732;28;20020;-66
2022/04/22 04:56:47;;;;;;;18.67;9.57;;;;;;;;;;5052408;28;20225;-68
2022/04/22 04:59:14;;;;;;;21.05;10.73;;;;;;;;;;5072338;28;20028;-67
2022/04/22 05:01:40;;;;;;;20.15;10.48;;;;;;;;;;5053338;28;20044;-67
2022/04/22 05:04:06;;;;;;;18.77;10.98;;;;;;;;;;5056458;28;20020;-66
2022/04/22 05:06:35;;;;;;;18.05;9.77;;;;;;;;;;5056978;28;20044;-67
2022/04/22 05:09:04;;;;;;;19.48;11.13;;;;;;;;;;5049469;28;20035;-66
2022/04/22 05:11:31;;;;;;;16.40;9.63;;;;;;;;;;5058021;28;20027;-67
2022/04/22 05:13:58;;;;;;;20.65;11.43;;;;;;;;;;5074435;28;20059;-66
2022/04/22 05:16:24;;;;;;;17.05;10.30;;;;;;;;;;5057836;28;20035;-66
2022/04/22 05:18:51;;;;;;;21.83;11.60;;;;;;;;;;5055830;28;20119;-67
2022/04/22 05:21:17;;;;;;;27.35;12.00;;;;;;;;;;5057691;28;20058;-67
2022/04/22 05:23:46;;;;;;;21.92;11.57;;;;;;;;;;5057819;28;20477;-67
2022/04/22 05:26:14;;;;;;;24.90;12.55;;;;;;;;;;5057963;28;20032;-67
2022/04/22 05:28:41;;;;;;;24.17;11.32;;;;;;;;;;5057247;28;20111;-66
2022/04/22 05:33:58;;;;;;;24.98;12.77;;;;;;;;;;5060491;28;20531;-66
2022/04/22 05:36:24;;;;;;;23.98;12.82;;;;;;;;;;5056719;28;20076;-66
2022/04/22 05:38:52;;;;;;;21.58;11.82;;;;;;;;;;5056870;28;20036;-66
2022/04/22 05:41:19;;;;;;;22.50;12.45;;;;;;;;;;5057621;28;20029;-66
2022/04/22 05:43:46;;;;;;;25.60;13.27;;;;;;;;;;5057669;28;20021;-66
2022/04/22 05:46:22;;;;;;;27.45;13.27;;;;;;;;;;5069614;28;20040;-66
2022/04/22 05:48:48;;;;;;;22.60;12.20;;;;;;;;;;5064104;28;20036;-67
2022/04/22 05:54:01;;;;;;;23.20;12.38;;;;;;;;;;5075416;28;20040;-67
2022/04/22 05:56:33;;;;;;;23.20;13.07;;;;;;;;;;5057488;28;20052;-66
2022/04/22 05:59:04;;;;;;;22.33;12.38;;;;;;;;;;5045517;28;20116;-67
2022/04/22 06:01:30;;;;;;;22.13;12.35;;;;;;;;;;5057123;28;20027;-67
2022/04/22 06:03:57;;;;;;;24.90;13.77;;;;;;;;;;5067244;28;20025;-66
2022/04/22 06:06:29;;;;;;;21.88;12.60;;;;;;;;;;5073982;28;20500;-67
2022/04/22 06:11:46;;;;;;;27.25;13.60;;;;;;;;;;5075482;28;20507;-66
2022/04/22 06:14:12;;;;;;;21.73;12.68;;;;;;;;;;5073727;28;20124;-66
2022/04/22 06:16:41;;;;;;;24.42;13.32;;;;;;;;;;5075146;28;20032;-67
2022/04/22 06:19:10;;;;;;;22.65;13.35;;;;;;;;;;5058171;28;20032;-66
2022/04/22 06:21:37;;;;;;;24.05;13.48;;;;;;;;;;5056205;28;20039;-67
2022/04/22 06:24:06;;;;;;;24.90;14.32;;;;;;;;;;5056191;28;20535;-67
2022/04/22 06:26:56;;;;;;;24.58;13.00;;;;;;;;;;5058982;28;20037;-67
2022/04/22 06:29:22;;;;;;;33.75;15.20;;;;;;;;;;5047108;28;20032;-66
2022/04/22 06:31:51;;;;;;;21.63;13.00;;;;;;;;;;5056284;28;20029;-67
2022/04/22 06:34:18;;;;;;;22.40;11.60;;;;;;;;;;5073986;28;20037;-67
2022/04/22 06:36:44;;;;;;;24.35;12.98;;;;;;;;;;5073320;28;20044;-67
2022/04/22 06:39:13;;;;;;;19.25;11.63;;;;;;;;;;5074123;28;20111;-67
2022/04/22 06:47:24;;;;;;;20.23;12.90;;;;;;;;;;5067087;28;20035;-67
2022/04/22 06:52:59;;;;;;;22.20;12.70;;;;;;;;;;5063317;28;20064;-67
2022/04/22 06:55:31;;;;;;;21.75;11.85;;;;;;;;;;5039219;28;20485;-67
2022/04/22 06:58:01;;;;;;;22.27;11.75;;;;;;;;;;5056204;28;20082;-67
2022/04/22 07:00:51;;;;;;;21.35;12.10;;;;;;;;;;5074541;28;20068;-67
2022/04/22 07:28:10;;;;;;;17.13;10.55;;;;;;;;;;5074268;28;20017;-67
2022/04/22 07:30:51;;;;;;;17.37;11.13;;;;;;;;;;5055158;28;20087;-67
2022/04/22 07:33:20;;;;;;;21.38;10.07;;;;;;;;;;5043667;28;20661;-67
2022/04/22 07:36:02;;;;;;;19.75;11.32;;;;;;;;;;5017635;28;20120;-67
2022/04/22 07:38:31;;;;;;;18.75;10.25;;;;;;;;;;5026199;28;20033;-67
2022/04/22 09:01:25;;;;;;;17.88;12.00;;;;;;;;;;5051010;28;20150;-67
2022/04/22 09:13:34;;;;;;;17.40;9.57;;;;;;;;;;5074136;28;20444;-67
2022/04/22 09:16:17;;;;;;;15.90;9.73;;;;;;;;;;5027475;28;20028;-67
2022/04/22 09:18:44;;;;;;;18.27;9.80;;;;;;;;;;5032629;28;20028;-67
2022/04/22 09:21:18;;;;;;;19.17;12.32;;;;;;;;;;5033283;28;20025;-67
2022/04/22 09:23:46;;;;;;;21.95;10.27;;;;;;;;;;5051749;28;20043;-68
2022/04/22 09:26:24;;;;;;;20.95;9.85;;;;;;;;;;5033078;28;20030;-67
2022/04/22 09:29:27;;;;;;;22.75;10.02;;;;;;;;;;5033258;28;20049;-67
2022/04/22 09:31:53;;;;;;;20.77;10.73;;;;;;;;;;5049726;28;20036;-67
2022/04/22 09:34:33;;;;;;;13.00;8.50;;;;;;;;;;5051212;28;20078;-67
2022/04/22 09:42:50;;;;;;;15.68;10.45;;;;;;;;;;5051543;28;20044;-67
2022/04/22 09:45:58;;;;;;;15.95;9.75;;;;;;;;;;5050448;28;20037;-67
2022/04/22 09:48:25;;;;;;;13.05;9.10;;;;;;;;;;5033196;28;20505;-67
2022/04/22 09:50:57;;;;;;;15.35;9.20;;;;;;;;;;5054294;28;20025;-67
2022/04/22 09:53:46;;;;;;;17.00;8.55;;;;;;;;;;5048113;28;20413;-68
2022/04/22 09:56:32;;;;;;;20.05;9.85;;;;;;;;;;5036835;28;20021;-67
2022/04/22 09:59:00;;;;;;;12.05;8.02;;;;;;;;;;5035649;28;20366;-67
2022/04/22 10:01:28;;;;;;;12.77;8.55;;;;;;;;;;5048116;28;20544;-67
2022/04/22 10:03:58;;;;;;;18.00;10.45;;;;;;;;;;5054818;28;20021;-67
2022/04/22 10:06:25;;;;;;;19.08;9.43;;;;;;;;;;5054650;28;20025;-67
2022/04/22 10:08:56;;;;;;;14.77;9.43;;;;;;;;;;5053643;28;20028;-67
2022/04/22 10:11:24;;;;;;;15.68;9.75;;;;;;;;;;5054666;28;20039;-67
2022/04/22 10:13:54;;;;;;;15.38;9.02;;;;;;;;;;5054824;28;20071;-67
2022/04/22 10:16:40;;;;;;;14.88;8.77;;;;;;;;;;5045033;28;20041;-68
2022/04/22 10:19:07;;;;;;;16.95;10.75;;;;;;;;;;5033962;28;20090;-68
2022/04/22 10:21:44;;;;;;;15.25;9.25;;;;;;;;;;5053389;28;20030;-68
2022/04/22 10:24:14;;;;;;;14.90;8.90;;;;;;;;;;5036548;28;20052;-67
2022/04/22 10:26:42;;;;;;;22.90;10.05;;;;;;;;;;5010999;28;20251;-67
2022/04/22 10:29:10;;;;;;;13.23;8.13;;;;;;;;;;5001210;28;20027;-68
2022/04/22 10:31:40;;;;;;;12.43;7.93;;;;;;;;;;4998032;28;20038;-68
2022/04/22 10:34:11;;;;;;;13.77;8.68;;;;;;;;;;5011220;28;20427;-68
2022/04/22 10:36:38;;;;;;;17.48;9.38;;;;;;;;;;4978775;28;20072;-67
2022/04/22 10:39:05;;;;;;;16.15;9.32;;;;;;;;;;5011493;28;20056;-68
2022/04/22 10:41:34;;;;;;;21.67;11.85;;;;;;;;;;5010798;28;20065;-67
2022/04/22 10:49:50;;;;;;;15.65;8.35;;;;;;;;;;4983914;28;20039;-68
2022/04/22 10:52:22;;;;;;;14.80;10.70;;;;;;;;;;4997826;28;20451;-68
2022/04/22 10:55:17;;;;;;;12.05;7.93;;;;;;;;;;4987698;28;20027;-68
2022/04/22 10:57:51;;;;;;;14.75;8.63;;;;;;;;;;4970103;28;20039;-68
2022/04/22 11:00:26;;;;;;;16.10;9.30;;;;;;;;;;4980798;28;20043;-68
2022/04/22 11:03:01;;;;;;;14.70;9.70;;;;;;;;;;4979946;28;20056;-68
2022/04/22 11:05:32;;;;;;;15.52;8.95;;;;;;;;;;4972222;28;20500;-68
2022/04/22 11:08:00;;;;;;;15.70;9.20;;;;;;;;;;4972359;28;20039;-68
2022/04/22 11:10:49;;;;;;;13.00;8.23;;;;;;;;;;4973380;28;20019;-68
2022/04/22 11:13:44;;;;;;;16.63;8.45;;;;;;;;;;4971992;28;20101;-69
2022/04/22 11:16:50;;;;;;;12.70;8.13;;;;;;;;;;4980073;28;20527;-68
2022/04/22 11:19:51;;;;;;;16.88;8.75;;;;;;;;;;4992233;28;20046;-68
2022/04/22 11:22:19;;;;;;;10.27;6.30;;;;;;;;;;4992457;28;20046;-68
2022/04/22 11:46:29;;;;;;;16.20;10.13;;;;;;;;;;5043485;28;20021;-69
2022/04/22 11:48:56;;;;;;;13.27;8.93;;;;;;;;;;5050391;28;20033;-69
2022/04/22 11:51:23;;;;;;;15.57;9.15;;;;;;;;;;5051025;28;20064;-69
2022/04/22 11:53:50;;;;;;;20.05;8.77;;;;;;;;;;5045013;28;20039;-69
2022/04/22 12:06:12;;;;;;;11.75;7.03;;;;;;;;;;5009716;28;20037;-68
2022/04/22 12:08:50;;;;;;;14.57;8.43;;;;;;;;;;5009852;28;20030;-68
2022/04/22 12:11:16;;;;;;;18.30;10.13;;;;;;;;;;5010030;28;20096;-68
2022/04/22 12:13:47;;;;;;;20.02;8.57;;;;;;;;;;4992879;28;20021;-68
2022/04/22 12:16:30;;;;;;;16.63;9.35;;;;;;;;;;4996270;28;20071;-68
2022/04/22 12:19:00;;;;;;;18.08;10.07;;;;;;;;;;5003176;28;20038;-68
2022/04/22 12:21:29;;;;;;;14.45;8.90;;;;;;;;;;5009617;28;20123;-68
2022/04/22 12:24:02;;;;;;;13.57;8.67;;;;;;;;;;5008867;28;20053;-69
2022/04/22 12:26:36;;;;;;;15.82;7.75;;;;;;;;;;4994084;28;20061;-68
2022/04/22 12:29:02;;;;;;;21.25;8.18;;;;;;;;;;5032672;28;20017;-68
2022/04/22 12:31:31;;;;;;;13.50;8.45;;;;;;;;;;5042973;28;20088;-68
2022/04/22 12:33:58;;;;;;;19.90;9.32;;;;;;;;;;5051070;28;20036;-68
2022/04/22 12:36:30;;;;;;;14.25;8.52;;;;;;;;;;5042477;28;20029;-68
2022/04/22 12:38:56;;;;;;;20.73;9.48;;;;;;;;;;4993650;28;20125;-68
2022/04/22 12:41:40;;;;;;;20.35;9.48;;;;;;;;;;4982453;28;20046;-68
2022/04/22 12:44:25;;;;;;;13.70;8.18;;;;;;;;;;4953270;28;20122;-68
2022/04/22 12:52:46;;;;;;;24.60;7.80;;;;;;;;;;4904207;29;20036;-68
2022/04/22 12:55:12;;;;;;;11.23;7.20;;;;;;;;;;4912269;29;20040;-68
2022/04/22 12:57:43;;;;;;;15.80;7.57;;;;;;;;;;4912023;29;20083;-68
2022/04/22 13:00:21;;;;;;;11.32;7.55;;;;;;;;;;4912501;29;20062;-68
2022/04/22 13:02:48;;;;;;;14.13;7.57;;;;;;;;;;4912196;29;20035;-68
2022/04/22 13:05:23;;;;;;;11.85;6.93;;;;;;;;;;4910588;29;20040;-68
2022/04/22 13:07:53;;;;;;;11.75;8.15;;;;;;;;;;4906099;29;20172;-68
2022/04/22 13:10:22;;;;;;;10.95;7.07;;;;;;;;;;4921622;29;20253;-68
2022/04/22 13:12:49;;;;;;;12.73;6.60;;;;;;;;;;4927747;29;20171;-68
2022/04/22 13:15:18;;;;;;;16.15;9.68;;;;;;;;;;4958076;28;20035;-68
2022/04/22 13:17:44;;;;;;;11.07;6.35;;;;;;;;;;4987883;28;20039;-68
2022/04/22 13:20:12;;;;;;;14.15;7.28;;;;;;;;;;4977926;28;20263;-68
2022/04/22 13:22:38;;;;;;;12.00;7.95;;;;;;;;;;4988928;28;20491;-68
2022/04/22 13:25:05;;;;;;;15.18;8.10;;;;;;;;;;4991391;28;20027;-68
2022/04/22 13:27:31;;;;;;;14.70;8.48;;;;;;;;;;4986498;28;20034;-68
2022/04/22 13:29:57;;;;;;;15.25;7.50;;;;;;;;;;5025019;28;20470;-68
2022/04/22 13:32:24;;;;;;;12.77;6.32;;;;;;;;;;5073090;28;20029;-68
2022/04/22 13:34:51;;;;;;;16.05;8.32;;;;;;;;;;5056954;28;20032;-68
2022/04/22 13:37:17;;;;;;;15.10;7.72;;;;;;;;;;5055885;28;20032;-69
2022/04/22 13:39:43;;;;;;;11.93;7.45;;;;;;;;;;5052187;28;20028;-68
2022/04/22 13:42:10;;;;;;;11.90;6.63;;;;;;;;;;5062196;28;20029;-68
2022/04/22 13:52:52;;;;;;;11.90;7.60;;;;;;;;;;5068608;28;20036;-68
2022/04/22 13:55:18;;;;;;;10.93;7.60;;;;;;;;;;5055559;28;20032;-68
2022/04/22 13:57:44;;;;;;;16.58;8.05;;;;;;;;;;5048762;28;20102;-68
2022/04/22 14:00:11;;;;;;;13.93;7.00;;;;;;;;;;5056965;28;20029;-68
2022/04/22 14:02:37;;;;;;;9.02;6.60;;;;;;;;;;5070267;28;20068;-68
2022/04/22 14:05:04;;;;;;;12.32;6.25;;;;;;;;;;5058341;28;20055;-68
2022/04/22 14:07:31;;;;;;;12.48;5.88;;;;;;;;;;5047677;28;20020;-68
2022/04/22 14:10:00;;;;;;;10.70;6.18;;;;;;;;;;5048087;28;20030;-68
2022/04/22 14:12:27;;;;;;;10.60;6.15;;;;;;;;;;5038349;28;20323;-68
2022/04/22 14:14:53;;;;;;;14.63;6.70;;;;;;;;;;5051997;28;20478;-68
2022/04/22 14:17:20;;;;;;;22.23;7.05;;;;;;;;;;5069235;28;20412;-69
2022/04/22 14:19:49;;;;;;;11.18;6.85;;;;;;;;;;5050412;28;20017;-68
2022/04/22 14:22:15;;;;;;;12.30;7.15;;;;;;;;;;5053697;28;20037;-68
2022/04/22 14:24:42;;;;;;;12.95;7.93;;;;;;;;;;5066962;28;20103;-68
2022/04/22 14:27:11;;;;;;;10.45;6.35;;;;;;;;;;5071182;28;20021;-66
2022/04/22 14:29:38;;;;;;;11.90;7.25;;;;;;;;;;5062896;28;20308;-67
2022/04/22 14:32:05;;;;;;;11.85;7.05;;;;;;;;;;5055351;28;20033;-66
2022/04/22 14:34:31;;;;;;;13.60;7.82;;;;;;;;;;5051102;28;20100;-66
2022/04/22 14:36:57;;;;;;;11.52;7.80;;;;;;;;;;5059214;28;20422;-67
2022/04/22 14:39:24;;;;;;;12.52;7.85;;;;;;;;;;5063308;28;20048;-67
2022/04/22 14:41:50;;;;;;;11.65;7.15;;;;;;;;;;5067405;28;20940;-66
2022/04/22 14:44:16;;;;;;;12.50;7.07;;;;;;;;;;5053343;28;20128;-66
2022/04/22 14:46:43;;;;;;;12.18;7.65;;;;;;;;;;5055266;28;20031;-66
2022/04/22 14:49:14;;;;;;;26.33;7.97;;;;;;;;;;5062923;28;20037;-66
2022/04/22 14:51:40;;;;;;;12.45;7.90;;;;;;;;;;5062064;28;20433;-67
2022/04/22 14:54:06;;;;;;;15.35;8.20;;;;;;;;;;5047427;28;20489;-67
2022/04/22 14:56:32;;;;;;;14.77;7.95;;;;;;;;;;5058586;28;20041;-67
2022/04/22 14:58:58;;;;;;;13.48;7.18;;;;;;;;;;5067725;28;20165;-67
2022/04/22 15:01:24;;;;;;;10.40;6.95;;;;;;;;;;5063077;28;20021;-67
2022/04/22 15:03:50;;;;;;;12.13;7.50;;;;;;;;;;5062948;28;20551;-66
2022/04/22 15:06:16;;;;;;;13.70;7.30;;;;;;;;;;5070311;28;20048;-68
2022/04/22 15:08:42;;;;;;;10.68;7.40;;;;;;;;;;5050531;28;20025;-66
2022/04/22 15:11:08;;;;;;;15.45;8.23;;;;;;;;;;5067366;28;20020;-66
2022/04/22 15:13:34;;;;;;;9.85;6.38;;;;;;;;;;5060969;28;20150;-67
2022/04/22 15:16:04;;;;;;;13.63;6.63;;;;;;;;;;5062338;28;20039;-66
2022/04/22 15:24:13;;;;;;;10.70;5.82;;;;;;;;;;5062180;28;20036;-66
2022/04/22 15:26:42;;;;;;;11.10;6.47;;;;;;;;;;5058077;28;20028;-66
2022/04/22 15:29:09;;;;;;;8.82;5.60;;;;;;;;;;5048445;28;20111;-66
2022/04/22 15:31:35;;;;;;;16.77;5.03;;;;;;;;;;5068795;28;20024;-66
2022/04/22 15:34:01;;;;;;;10.32;6.63;;;;;;;;;;5062116;28;20044;-66
2022/04/22 15:36:28;;;;;;;8.10;5.40;;;;;;;;;;5066751;28;20478;-67
2022/04/22 15:38:56;;;;;;;13.05;6.28;;;;;;;;;;5044862;28;20379;-67
2022/04/22 15:41:29;;;;;;;10.18;4.88;;;;;;;;;;5059212;28;20031;-66
2022/04/22 15:43:55;;;;;;;8.93;5.68;;;;;;;;;;5067116;28;20027;-67
2022/04/22 15:46:21;;;;;;;8.85;5.78;;;;;;;;;;5051089;28;20033;-66
2022/04/22 15:48:48;;;;;;;9.25;5.00;;;;;;;;;;5062416;28;20121;-66
2022/04/22 15:51:14;;;;;;;9.00;5.20;;;;;;;;;;5061195;28;20110;-66
2022/04/22 15:53:41;;;;;;;10.38;5.65;;;;;;;;;;5058232;28;20099;-67
2022/04/22 15:56:09;;;;;;;9.27;5.80;;;;;;;;;;5057918;28;20033;-66
2022/04/22 15:58:36;;;;;;;11.35;6.60;;;;;;;;;;5067303;28;20052;-65
2022/04/22 16:01:03;;;;;;;8.52;6.53;;;;;;;;;;5060461;28;20029;-66
2022/04/22 16:03:29;;;;;;;9.93;6.35;;;;;;;;;;5054718;28;20024;-66
2022/04/22 16:05:55;;;;;;;9.73;5.95;;;;;;;;;;5054926;28;20362;-66
2022/04/22 16:08:22;;;;;;;15.25;6.10;;;;;;;;;;5058739;28;20029;-66
2022/04/22 16:10:48;;;;;;;10.18;6.70;;;;;;;;;;5057137;28;20062;-66
2022/04/22 16:16:03;;;;;;;13.13;6.88;;;;;;;;;;5030320;28;20394;-66
2022/04/22 16:18:30;;;;;;;14.70;6.70;;;;;;;;;;5051560;28;20124;-65
2022/04/22 16:20:56;;;;;;;13.15;7.57;;;;;;;;;;5056099;28;20557;-66
2022/04/22 16:23:23;;;;;;;8.93;5.60;;;;;;;;;;5057211;28;20112;-66
2022/04/22 16:25:49;;;;;;;9.45;5.75;;;;;;;;;;5055210;28;20486;-65
2022/04/22 16:28:16;;;;;;;10.80;6.82;;;;;;;;;;5055911;28;20040;-65
2022/04/22 16:30:43;;;;;;;8.38;5.97;;;;;;;;;;5068227;28;20069;-65
2022/04/22 16:33:09;;;;;;;12.57;8.20;;;;;;;;;;5052457;28;20425;-65
2022/04/22 16:35:35;;;;;;;17.63;7.80;;;;;;;;;;5060327;28;20017;-66
2022/04/22 16:38:01;;;;;;;12.27;7.63;;;;;;;;;;5053116;28;20089;-64
2022/04/22 16:40:28;;;;;;;21.75;8.32;;;;;;;;;;5058924;28;20025;-64
2022/04/22 16:42:57;;;;;;;11.13;7.57;;;;;;;;;;5063012;28;20060;-63
2022/04/22 16:45:23;;;;;;;20.57;9.33;;;;;;;;;;5062396;28;20032;-62
2022/04/22 16:47:49;;;;;;;11.98;7.90;;;;;;;;;;5061214;28;20259;-64
2022/04/22 16:50:16;;;;;;;16.73;8.52;;;;;;;;;;5050966;28;20082;-64
2022/04/22 16:52:42;;;;;;;13.80;8.05;;;;;;;;;;5067790;28;20024;-64
2022/04/22 16:55:09;;;;;;;15.10;8.43;;;;;;;;;;5059200;28;20750;-64
2022/04/22 16:57:35;;;;;;;17.67;8.40;;;;;;;;;;5055862;28;20037;-64
2022/04/22 17:00:01;;;;;;;13.90;7.53;;;;;;;;;;5070615;28;20647;-64
2022/04/22 17:02:28;;;;;;;15.43;7.85;;;;;;;;;;5073393;28;20016;-64
2022/04/22 17:04:54;;;;;;;29.92;12.43;;;;;;;;;;5072907;28;20373;-65
2022/04/22 17:07:20;;;;;;;17.45;9.43;;;;;;;;;;5069905;28;20107;-65
2022/04/22 17:09:46;;;;;;;16.70;8.20;;;;;;;;;;5074504;28;20150;-65
2022/04/22 17:12:14;;;;;;;12.50;7.50;;;;;;;;;;5073538;28;20460;-65
2022/04/22 17:22:54;;;;;;;12.05;6.95;;;;;;;;;;5070266;28;20044;-65
2022/04/22 17:25:21;;;;;;;12.40;6.57;;;;;;;;;;5071827;28;20037;-64
2022/04/22 17:27:54;;;;;;;9.85;6.40;;;;;;;;;;5073562;28;20029;-65
2022/04/22 17:30:20;;;;;;;10.88;6.35;;;;;;;;;;5064587;28;20504;-65
2022/04/22 17:32:48;;;;;;;11.35;6.82;;;;;;;;;;5060815;28;20056;-65
2022/04/22 17:35:14;;;;;;;15.27;6.03;;;;;;;;;;5064054;28;20033;-65
2022/04/22 17:37:43;;;;;;;10.85;6.80;;;;;;;;;;5066189;28;20037;-65
2022/04/22 17:40:12;;;;;;;11.65;6.05;;;;;;;;;;5059257;28;20067;-65
2022/04/22 17:42:38;;;;;;;12.65;7.10;;;;;;;;;;5067365;28;20025;-65
2022/04/22 17:45:04;;;;;;;10.07;7.13;;;;;;;;;;5062627;28;20033;-65
2022/04/22 17:47:31;;;;;;;15.60;7.25;;;;;;;;;;5061601;28;20060;-64
2022/04/22 17:49:57;;;;;;;9.57;5.82;;;;;;;;;;5064602;28;20029;-64
2022/04/22 17:52:23;;;;;;;13.02;7.10;;;;;;;;;;5065634;28;20021;-65
2022/04/22 17:54:49;;;;;;;9.68;6.22;;;;;;;;;;5064887;28;20096;-65
2022/04/22 17:57:16;;;;;;;14.15;7.00;;;;;;;;;;5058462;28;20131;-65
2022/04/22 17:59:44;;;;;;;9.73;5.80;;;;;;;;;;5049728;28;20453;-64
2022/04/22 18:02:10;;;;;;;11.52;7.53;;;;;;;;;;5042268;28;20025;-64
2022/04/22 18:04:36;;;;;;;11.85;7.22;;;;;;;;;;5066023;28;20036;-64
2022/04/22 18:07:03;;;;;;;9.43;6.35;;;;;;;;;;5062232;28;20367;-64
2022/04/22 18:09:29;;;;;;;11.48;6.75;;;;;;;;;;5062659;28;20017;-64
2022/04/22 18:11:56;;;;;;;19.73;5.97;;;;;;;;;;5060518;28;20078;-64
2022/04/22 18:17:14;;;;;;;13.40;6.28;;;;;;;;;;5059841;28;20056;-65
2022/04/22 18:19:40;;;;;;;10.45;6.45;;;;;;;;;;5041819;28;20052;-65
2022/04/22 18:22:07;;;;;;;11.20;5.78;;;;;;;;;;5064573;28;20036;-65
2022/04/22 18:24:33;;;;;;;10.63;6.15;;;;;;;;;;5041579;28;20109;-65
2022/04/22 18:26:59;;;;;;;8.20;5.65;;;;;;;;;;5041741;28;20477;-64
2022/04/22 18:29:29;;;;;;;10.45;5.95;;;;;;;;;;5064027;28;20024;-65
2022/04/22 18:31:58;;;;;;;10.75;5.32;;;;;;;;;;5057777;28;20112;-65
2022/04/22 18:34:24;;;;;;;12.88;6.50;;;;;;;;;;5060164;28;20024;-65
2022/04/22 18:36:50;;;;;;;10.07;5.97;;;;;;;;;;5062021;28;20078;-65
2022/04/22 18:39:16;;;;;;;14.90;6.35;;;;;;;;;;5061654;28;20037;-65
2022/04/22 18:41:42;;;;;;;10.77;6.05;;;;;;;;;;5041293;28;20033;-65